MMIA

Details ICAO MMIA (CLQ)
Name COLIMA
Region Mexico
Timezone America/Mexico_City (UTC-5.0)
Plans Departing 13
Arriving 14
Stats Elevation 2,467 ft / 752 m (AMSL)
Location 19.276968° -103.577536°
Runways 1
Magnetic Variation 6.275° E
Sunrise 2018-05-22 12:18:41 UTC / 2018-05-22 07:18:41 Local
Sunset 2018-05-23 01:26:10 UTC / 2018-05-22 20:26:10 Local
Advertisement - Login to hide

Runways

ID Width Length Bearing (true) Bearing (mag) Surface Threshold Offset Overrun Length
07 148 ft / 45 m 7,533 ft / 2,296 m 73.78° 67.51° Asphalt 0 ft / 0 m 200 ft / 61 m
25 148 ft / 45 m 7,533 ft / 2,296 m 253.79° 247.52° Asphalt 0 ft / 0 m 200 ft / 61 m

Map

Weather


0- 5 10 15 20 25 30 35+ Temperature / ° C

Clouds and Precipitation
Forecast for 2018-05-23 00:00 UTC. Updated 2 hours ago

Ground ~20,000 ft ~40,000 ft Winds

METAR

MMIA 230046Z 24012KT 6SM SCT200 26/21 A2992 RMK 8/001 HZY

TAF

Not found

Frequencies

Tower 118.90 MHz TWR
Warning: Do not use this data for real-world aviation or navigation. No guarantee of current accuracy is given.